ΕΜΥ, Εθνική Μετεωρολογική Υπηρεσία - Δελτία Καιρού, Προγνώσεις

ΑΕΡΟΝΑΥΤΙΛΙΑ

GREEK AIRPORTS CODES

TAF LGSR 232300Z 2400/2424 20018KT 9999 FEW020 SCT025 TEMPO 2400/2412 21018G28KT PROB30 TEMPO 2400/2409 5000 RA FEW018TCU BKN025=

EUROPEAN AIRPORTS CODES

LFPO 240300Z 26007KT CAVOK M01/M02 Q1002 NOSIG=